Time;durP1;ratioP1;P1;durP2;ratioP2;P2;SDS_P1;SDS_P2;PMS_P1;PMS_P2;Temp;Humidity;BMP_temperature;BMP_pressure;BME280_temperature;BME280_humidity;BME280_pressure;Samples;Min_cycle;Max_cycle;Signal;HPM_P1;HPM_P2
2023/09/16 04:59:59;;;;;;;6.15;4.07;;;;;;;;;;5068920;27;20445;-84
2023/09/16 05:02:25;;;;;;;4.97;3.30;;;;;;;;;;5066224;28;20473;-85
2023/09/16 05:04:50;;;;;;;4.95;3.45;;;;;;;;;;5067444;28;20017;-81
2023/09/16 05:07:16;;;;;;;6.00;3.42;;;;;;;;;;5067752;28;20036;-82
2023/09/16 05:09:41;;;;;;;4.85;4.15;;;;;;;;;;5070366;28;20377;-83
2023/09/16 05:12:07;;;;;;;5.85;4.47;;;;;;;;;;5068238;28;20033;-83
2023/09/16 05:14:32;;;;;;;4.28;3.00;;;;;;;;;;5069162;28;20508;-83
2023/09/16 05:16:57;;;;;;;3.63;2.70;;;;;;;;;;5065242;28;20124;-82
2023/09/16 05:19:23;;;;;;;4.05;2.78;;;;;;;;;;5062345;28;20033;-81
2023/09/16 05:21:48;;;;;;;3.42;2.47;;;;;;;;;;5097703;28;20052;-83
2023/09/16 05:24:14;;;;;;;3.92;2.35;;;;;;;;;;5062865;28;20021;-83
2023/09/16 05:26:39;;;;;;;2.78;1.75;;;;;;;;;;5065288;28;20021;-84
2023/09/16 05:29:05;;;;;;;2.28;1.83;;;;;;;;;;5062521;28;20060;-84
2023/09/16 05:31:30;;;;;;;2.17;1.40;;;;;;;;;;5064229;28;20037;-82
2023/09/16 05:33:55;;;;;;;2.33;1.77;;;;;;;;;;5064522;28;20025;-82
2023/09/16 05:36:21;;;;;;;2.78;1.92;;;;;;;;;;5062655;28;20040;-83
2023/09/16 05:38:46;;;;;;;2.95;2.08;;;;;;;;;;5065750;28;20036;-82
2023/09/16 05:41:12;;;;;;;1.58;1.33;;;;;;;;;;5064754;28;20024;-83
2023/09/16 05:43:37;;;;;;;5.10;2.05;;;;;;;;;;5063473;28;20040;-83
2023/09/16 05:46:03;;;;;;;3.75;1.88;;;;;;;;;;5061967;28;20104;-83
2023/09/16 05:48:28;;;;;;;2.13;1.10;;;;;;;;;;5064202;28;20120;-82
2023/09/16 05:50:58;;;;;;;2.95;1.38;;;;;;;;;;5065650;28;20095;-85
2023/09/16 05:53:24;;;;;;;2.35;1.48;;;;;;;;;;5062266;28;20028;-86
2023/09/16 05:55:50;;;;;;;3.95;2.05;;;;;;;;;;5067489;28;20036;-84
2023/09/16 05:58:15;;;;;;;2.50;1.60;;;;;;;;;;5065633;28;20554;-85
2023/09/16 06:00:41;;;;;;;1.60;1.23;;;;;;;;;;5067116;28;20495;-85
2023/09/16 06:03:07;;;;;;;1.80;1.33;;;;;;;;;;5064410;28;20036;-85
2023/09/16 06:05:33;;;;;;;1.42;0.82;;;;;;;;;;5063415;28;20037;-86
2023/09/16 06:07:58;;;;;;;1.27;0.98;;;;;;;;;;5057433;28;20119;-87
2023/09/16 06:10:24;;;;;;;1.92;1.13;;;;;;;;;;5046080;28;20112;-85
2023/09/16 06:12:49;;;;;;;0.98;0.77;;;;;;;;;;5045234;28;20107;-85
2023/09/16 06:15:15;;;;;;;0.65;0.65;;;;;;;;;;5049385;28;20029;-85
2023/09/16 06:17:40;;;;;;;2.95;1.55;;;;;;;;;;5049110;28;20040;-86
2023/09/16 06:20:06;;;;;;;1.15;0.70;;;;;;;;;;5053141;28;20025;-87
2023/09/16 06:22:35;;;;;;;1.52;0.80;;;;;;;;;;5048421;28;20388;-88
2023/09/16 06:25:01;;;;;;;0.93;0.70;;;;;;;;;;5048025;28;20461;-85
2023/09/16 06:27:27;;;;;;;0.77;0.70;;;;;;;;;;5049249;28;20281;-88
2023/09/16 06:29:52;;;;;;;0.75;0.65;;;;;;;;;;5050487;28;20029;-88
2023/09/16 06:32:19;;;;;;;3.03;0.60;;;;;;;;;;5051051;28;20040;-89
2023/09/16 06:34:44;;;;;;;1.90;1.05;;;;;;;;;;5049769;28;20080;-86
2023/09/16 06:37:10;;;;;;;0.65;0.63;;;;;;;;;;5050311;28;20029;-85
2023/09/16 06:39:35;;;;;;;1.10;0.80;;;;;;;;;;5048987;28;20453;-85
2023/09/16 06:42:00;;;;;;;1.85;1.25;;;;;;;;;;5048470;28;20033;-83
2023/09/16 06:44:26;;;;;;;1.33;0.70;;;;;;;;;;5046428;28;20087;-83
2023/09/16 06:46:51;;;;;;;0.65;0.55;;;;;;;;;;5047603;28;20064;-86
2023/09/16 06:49:19;;;;;;;1.00;0.70;;;;;;;;;;5045693;28;20406;-82
2023/09/16 06:51:45;;;;;;;0.85;0.40;;;;;;;;;;5046491;28;20042;-82
2023/09/16 06:54:10;;;;;;;1.73;0.85;;;;;;;;;;5050049;28;20025;-83
2023/09/16 06:56:36;;;;;;;1.10;0.63;;;;;;;;;;5043008;28;20468;-84
2023/09/16 06:59:01;;;;;;;1.40;0.88;;;;;;;;;;5048443;28;20044;-84
2023/09/16 07:01:27;;;;;;;1.63;1.10;;;;;;;;;;5051411;28;20503;-84
2023/09/16 07:03:53;;;;;;;1.48;1.15;;;;;;;;;;5048189;28;20024;-85
2023/09/16 07:06:18;;;;;;;1.95;1.00;;;;;;;;;;5054145;28;20040;-85
2023/09/16 07:08:44;;;;;;;1.35;1.08;;;;;;;;;;5053463;28;20025;-86
2023/09/16 07:11:11;;;;;;;1.70;1.25;;;;;;;;;;5047328;28;20112;-86
2023/09/16 07:13:36;;;;;;;0.90;0.77;;;;;;;;;;5050035;28;20083;-87
2023/09/16 07:16:02;;;;;;;1.00;0.90;;;;;;;;;;5049680;28;20493;-84
2023/09/16 07:18:27;;;;;;;1.67;1.13;;;;;;;;;;5050524;28;20028;-83
2023/09/16 07:20:53;;;;;;;1.45;1.20;;;;;;;;;;5048351;28;20054;-82
2023/09/16 07:23:18;;;;;;;0.55;0.50;;;;;;;;;;5049914;28;20123;-82
2023/09/16 07:25:53;;;;;;;2.42;1.25;;;;;;;;;;5052246;28;20024;-83
2023/09/16 07:28:19;;;;;;;1.92;1.45;;;;;;;;;;5047271;28;20024;-84
2023/09/16 07:30:44;;;;;;;2.50;1.98;;;;;;;;;;5046519;28;20033;-82
2023/09/16 07:33:09;;;;;;;5.10;3.55;;;;;;;;;;5049960;28;20036;-82
2023/09/16 07:35:35;;;;;;;6.53;4.43;;;;;;;;;;5051030;28;20017;-82
2023/09/16 07:38:00;;;;;;;5.82;3.60;;;;;;;;;;5050604;28;20115;-84
2023/09/16 07:40:26;;;;;;;8.63;4.25;;;;;;;;;;5045094;28;20054;-82
2023/09/16 07:42:51;;;;;;;4.43;3.30;;;;;;;;;;5048345;28;20029;-82
2023/09/16 07:45:17;;;;;;;4.35;3.42;;;;;;;;;;5040772;28;20025;-82
2023/09/16 07:47:42;;;;;;;4.40;2.85;;;;;;;;;;5043662;28;20469;-83
2023/09/16 07:50:08;;;;;;;4.00;3.45;;;;;;;;;;5044850;28;20029;-82
2023/09/16 07:52:33;;;;;;;5.20;3.35;;;;;;;;;;5045230;28;20033;-82
2023/09/16 07:54:59;;;;;;;4.35;2.67;;;;;;;;;;5041002;28;20881;-84
2023/09/16 07:57:25;;;;;;;6.72;4.63;;;;;;;;;;5036616;28;20473;-83
2023/09/16 07:59:50;;;;;;;4.18;3.08;;;;;;;;;;5039820;28;20041;-86
2023/09/16 08:02:17;;;;;;;4.10;3.35;;;;;;;;;;5040631;28;20496;-86
2023/09/16 08:04:42;;;;;;;6.07;4.78;;;;;;;;;;5043353;28;20060;-84
2023/09/16 08:07:08;;;;;;;6.35;3.67;;;;;;;;;;5045274;28;20186;-85
2023/09/16 08:09:33;;;;;;;5.80;4.10;;;;;;;;;;5041816;28;20543;-83
2023/09/16 08:11:59;;;;;;;4.70;3.40;;;;;;;;;;5043786;28;20024;-84
2023/09/16 08:14:24;;;;;;;6.50;4.10;;;;;;;;;;5051135;28;20036;-85
2023/09/16 08:16:52;;;;;;;6.03;4.57;;;;;;;;;;5050558;28;20029;-84
2023/09/16 08:19:19;;;;;;;5.18;3.78;;;;;;;;;;5050925;28;20036;-82
2023/09/16 08:21:47;;;;;;;9.88;5.05;;;;;;;;;;5047720;28;20496;-83
2023/09/16 08:24:12;;;;;;;5.60;4.38;;;;;;;;;;5045775;28;20087;-86
2023/09/16 08:26:41;;;;;;;7.28;4.15;;;;;;;;;;5047344;28;20025;-86
2023/09/16 08:29:06;;;;;;;6.90;4.72;;;;;;;;;;5048374;28;20050;-86
2023/09/16 08:31:41;;;;;;;6.78;5.03;;;;;;;;;;5049171;28;20078;-91
2023/09/16 08:34:06;;;;;;;8.18;5.15;;;;;;;;;;5049635;28;20051;-85
2023/09/16 08:36:32;;;;;;;6.35;5.10;;;;;;;;;;5046157;28;20078;-85
2023/09/16 08:38:57;;;;;;;7.53;4.65;;;;;;;;;;5045654;28;20028;-85
2023/09/16 08:41:30;;;;;;;7.07;4.30;;;;;;;;;;5046812;28;20040;-82
2023/09/16 08:44:00;;;;;;;5.10;3.90;;;;;;;;;;5047033;28;20097;-83
2023/09/16 08:46:29;;;;;;;5.20;3.90;;;;;;;;;;5045237;28;20040;-81
2023/09/16 08:48:55;;;;;;;5.10;3.42;;;;;;;;;;5044261;28;20025;-81
2023/09/16 08:51:23;;;;;;;7.20;4.70;;;;;;;;;;5050574;28;20646;-81
2023/09/16 08:53:51;;;;;;;6.25;4.13;;;;;;;;;;5047586;28;20491;-81
2023/09/16 08:56:17;;;;;;;7.05;5.18;;;;;;;;;;5042343;28;20092;-81
2023/09/16 08:58:44;;;;;;;6.70;5.15;;;;;;;;;;5049402;28;20116;-81
2023/09/16 09:01:10;;;;;;;7.32;4.82;;;;;;;;;;5048793;28;20024;-80
2023/09/16 09:03:36;;;;;;;5.88;4.78;;;;;;;;;;5045692;28;20033;-80
2023/09/16 09:06:03;;;;;;;5.90;4.25;;;;;;;;;;5047862;28;20029;-80
2023/09/16 09:08:29;;;;;;;5.93;4.30;;;;;;;;;;5045882;28;20056;-81
2023/09/16 09:10:56;;;;;;;6.97;4.85;;;;;;;;;;5047007;28;20017;-80
2023/09/16 09:13:23;;;;;;;13.57;5.07;;;;;;;;;;5049571;28;20029;-80
2023/09/16 09:15:49;;;;;;;7.28;5.47;;;;;;;;;;5052433;28;20032;-80
2023/09/16 09:18:18;;;;;;;7.22;4.55;;;;;;;;;;5050015;28;20086;-80
2023/09/16 09:20:43;;;;;;;6.55;4.55;;;;;;;;;;5046003;28;20104;-82
2023/09/16 09:23:09;;;;;;;5.63;4.78;;;;;;;;;;5041344;28;20100;-81
2023/09/16 09:25:36;;;;;;;5.55;4.13;;;;;;;;;;5046123;28;20049;-79
2023/09/16 09:28:03;;;;;;;5.80;4.22;;;;;;;;;;5046028;28;20083;-81
2023/09/16 09:30:30;;;;;;;7.32;5.30;;;;;;;;;;5048192;28;20055;-80
2023/09/16 09:32:57;;;;;;;8.35;3.90;;;;;;;;;;5044754;28;20033;-80
2023/09/16 09:35:30;;;;;;;9.60;5.15;;;;;;;;;;5047292;28;22008;-80
2023/09/16 09:37:57;;;;;;;5.32;4.25;;;;;;;;;;5041394;28;20029;-81
2023/09/16 09:40:22;;;;;;;4.80;3.70;;;;;;;;;;5044592;28;20029;-82
2023/09/16 09:42:49;;;;;;;7.35;4.13;;;;;;;;;;5044687;28;21472;-81
2023/09/16 09:45:16;;;;;;;5.80;4.60;;;;;;;;;;5050877;28;20024;-81
2023/09/16 09:47:43;;;;;;;6.35;4.80;;;;;;;;;;5049776;28;20027;-82
2023/09/16 09:50:14;;;;;;;10.35;4.18;;;;;;;;;;5052687;28;21824;-81
2023/09/16 09:52:47;;;;;;;6.43;4.28;;;;;;;;;;5051763;28;20099;-82
2023/09/16 09:55:33;;;;;;;5.03;4.45;;;;;;;;;;5051200;28;20033;-80
2023/09/16 09:58:01;;;;;;;6.97;4.55;;;;;;;;;;5046897;28;20056;-82
2023/09/16 10:00:28;;;;;;;4.03;2.97;;;;;;;;;;5047547;28;20032;-83
2023/09/16 10:03:00;;;;;;;5.03;3.50;;;;;;;;;;5044897;28;20032;-82
2023/09/16 10:05:36;;;;;;;9.00;3.58;;;;;;;;;;5045195;28;20037;-82
2023/09/16 10:08:25;;;;;;;5.03;2.83;;;;;;;;;;5048635;28;20041;-84
2023/09/16 10:10:52;;;;;;;5.05;2.38;;;;;;;;;;5052620;28;20025;-81
2023/09/16 10:13:19;;;;;;;4.38;3.22;;;;;;;;;;5051127;28;20033;-82
2023/09/16 10:15:44;;;;;;;3.92;2.50;;;;;;;;;;5051750;28;20029;-82
2023/09/16 10:18:12;;;;;;;3.60;3.05;;;;;;;;;;5049682;28;20029;-82
2023/09/16 10:20:42;;;;;;;4.53;2.95;;;;;;;;;;5049441;28;20041;-81
2023/09/16 10:23:29;;;;;;;3.13;2.60;;;;;;;;;;5050500;28;20783;-80
2023/09/16 10:26:10;;;;;;;5.35;3.65;;;;;;;;;;5063868;28;20493;-81
2023/09/16 10:28:43;;;;;;;4.57;3.35;;;;;;;;;;5049477;28;20508;-80
2023/09/16 10:31:11;;;;;;;5.45;4.00;;;;;;;;;;5050091;28;20031;-80
2023/09/16 10:33:37;;;;;;;5.25;3.03;;;;;;;;;;5051871;28;20488;-82
2023/09/16 10:36:04;;;;;;;3.10;2.78;;;;;;;;;;5046218;28;20024;-82
2023/09/16 10:38:34;;;;;;;3.63;2.33;;;;;;;;;;5047957;28;20098;-81
2023/09/16 11:24:14;;;;;;;4.32;3.22;;;;;;;;;;5103303;28;20477;-84
2023/09/16 11:26:47;;;;;;;5.18;2.88;;;;;;;;;;5096552;28;20024;-83
2023/09/16 11:29:21;;;;;;;5.57;3.25;;;;;;;;;;5094797;28;20017;-84
2023/09/16 11:31:47;;;;;;;4.32;2.83;;;;;;;;;;5097224;28;20033;-83
2023/09/16 11:34:13;;;;;;;6.97;3.53;;;;;;;;;;5098011;28;20073;-83
2023/09/16 11:36:45;;;;;;;2.60;2.30;;;;;;;;;;5099121;28;20035;-85
2023/09/16 11:39:18;;;;;;;5.32;3.97;;;;;;;;;;5101658;28;20039;-84
2023/09/16 11:41:45;;;;;;;7.82;4.57;;;;;;;;;;5098538;28;20051;-84
2023/09/16 11:44:15;;;;;;;3.95;3.28;;;;;;;;;;5092360;28;20634;-85
2023/09/16 11:47:14;;;;;;;7.15;4.05;;;;;;;;;;5097245;28;20035;-83
2023/09/16 11:49:42;;;;;;;3.75;3.20;;;;;;;;;;5085786;28;20085;-85
2023/09/16 11:52:08;;;;;;;6.82;4.60;;;;;;;;;;5093895;28;20085;-84
2023/09/16 11:54:39;;;;;;;3.72;3.17;;;;;;;;;;5096580;28;20029;-84
2023/09/16 11:57:05;;;;;;;6.18;3.72;;;;;;;;;;5094476;28;20028;-86
2023/09/16 11:59:30;;;;;;;5.13;3.30;;;;;;;;;;5101999;28;20078;-86
2023/09/16 12:01:56;;;;;;;6.60;4.07;;;;;;;;;;5094093;28;20047;-86
2023/09/16 12:04:22;;;;;;;5.53;3.90;;;;;;;;;;5100953;28;20025;-89
2023/09/16 12:06:49;;;;;;;4.47;3.65;;;;;;;;;;5095957;28;20027;-88
2023/09/16 12:09:17;;;;;;;3.83;3.05;;;;;;;;;;5102400;28;20040;-89
2023/09/16 12:12:05;;;;;;;4.38;2.85;;;;;;;;;;5100464;28;20024;-90
2023/09/16 12:14:34;;;;;;;6.25;2.75;;;;;;;;;;5093316;28;20035;-88
2023/09/16 12:17:01;;;;;;;3.22;2.30;;;;;;;;;;5087750;28;20024;-87
2023/09/16 12:19:27;;;;;;;3.40;2.55;;;;;;;;;;5095089;28;20031;-87
2023/09/16 12:21:52;;;;;;;4.75;3.25;;;;;;;;;;5099980;28;20372;-89
2023/09/16 12:24:20;;;;;;;2.85;2.45;;;;;;;;;;5092668;28;20035;-90
2023/09/16 12:26:46;;;;;;;5.18;3.03;;;;;;;;;;5095150;28;20047;-86
2023/09/16 12:29:12;;;;;;;2.20;1.85;;;;;;;;;;5098193;28;20139;-88
2023/09/16 12:31:38;;;;;;;3.65;2.50;;;;;;;;;;5090028;28;21157;-85
2023/09/16 12:34:03;;;;;;;2.95;2.10;;;;;;;;;;5081769;28;20052;-86
2023/09/16 12:36:30;;;;;;;2.92;2.03;;;;;;;;;;5076237;28;20054;-87
2023/09/16 12:39:00;;;;;;;10.73;2.60;;;;;;;;;;5079648;28;20048;-85
2023/09/16 12:41:27;;;;;;;2.47;1.98;;;;;;;;;;5076523;28;20073;-87
2023/09/16 12:43:54;;;;;;;3.00;2.13;;;;;;;;;;5080960;28;20031;-87
2023/09/16 12:46:21;;;;;;;5.30;3.30;;;;;;;;;;5081905;28;20067;-87
2023/09/16 12:48:48;;;;;;;5.20;3.88;;;;;;;;;;5077502;28;20048;-83
2023/09/16 12:51:17;;;;;;;4.57;2.60;;;;;;;;;;5081941;28;20024;-86
2023/09/16 12:53:42;;;;;;;4.35;2.33;;;;;;;;;;5080960;28;20025;-88
2023/09/16 12:56:08;;;;;;;4.65;3.50;;;;;;;;;;5079271;28;20034;-86
2023/09/16 12:58:41;;;;;;;3.30;2.13;;;;;;;;;;5076563;28;20431;-86
2023/09/16 13:01:07;;;;;;;3.53;2.80;;;;;;;;;;5084641;28;20039;-86
2023/09/16 13:03:38;;;;;;;4.28;2.60;;;;;;;;;;5087464;28;20016;-86
2023/09/16 13:06:04;;;;;;;5.07;3.40;;;;;;;;;;5075266;28;20040;-85
2023/09/16 13:08:29;;;;;;;4.13;2.28;;;;;;;;;;5080549;28;20020;-85
2023/09/16 13:10:55;;;;;;;4.88;3.30;;;;;;;;;;5084984;28;20100;-85
2023/09/16 13:13:22;;;;;;;4.78;2.85;;;;;;;;;;5085856;28;20035;-88
2023/09/16 13:15:49;;;;;;;2.55;2.13;;;;;;;;;;5080699;28;20032;-86
2023/09/16 13:18:15;;;;;;;2.78;2.00;;;;;;;;;;5081011;28;20027;-85
2023/09/16 13:20:42;;;;;;;4.40;3.38;;;;;;;;;;5073688;28;20043;-85
2023/09/16 13:23:17;;;;;;;2.92;2.30;;;;;;;;;;5082687;28;20060;-84
2023/09/16 13:25:43;;;;;;;1.63;1.52;;;;;;;;;;5080433;28;20040;-87
2023/09/16 13:28:15;;;;;;;3.05;1.65;;;;;;;;;;5084632;28;20039;-89
2023/09/16 13:30:51;;;;;;;3.80;3.05;;;;;;;;;;5075753;28;20036;-87
2023/09/16 13:33:16;;;;;;;2.78;1.88;;;;;;;;;;5084437;28;20020;-87
2023/09/16 13:35:45;;;;;;;3.50;2.65;;;;;;;;;;5082569;28;20146;-89
2023/09/16 13:38:12;;;;;;;3.60;2.25;;;;;;;;;;5081040;28;20474;-88
2023/09/16 13:40:47;;;;;;;3.15;2.25;;;;;;;;;;5086672;28;20035;-87
2023/09/16 13:43:12;;;;;;;4.80;3.08;;;;;;;;;;5084774;28;20024;-86
2023/09/16 13:45:39;;;;;;;3.72;2.13;;;;;;;;;;5087269;28;20376;-87
2023/09/16 13:48:19;;;;;;;2.53;1.88;;;;;;;;;;5079654;28;20040;-85
2023/09/16 13:50:45;;;;;;;;;;;;;;;;;;5083652;28;20024;-86
2023/09/16 13:53:11;;;;;;;2.13;1.55;;;;;;;;;;5082129;28;19932;-89
2023/09/16 13:55:40;;;;;;;2.90;1.98;;;;;;;;;;5078338;28;20498;-88
2023/09/16 13:58:06;;;;;;;3.33;2.13;;;;;;;;;;5087523;28;20028;-86
2023/09/16 14:00:32;;;;;;;2.80;1.85;;;;;;;;;;5079129;28;20772;-88
2023/09/16 14:02:58;;;;;;;3.15;2.33;;;;;;;;;;5079314;28;20016;-88
2023/09/16 14:05:25;;;;;;;1.65;1.55;;;;;;;;;;5083335;28;20021;-89
2023/09/16 14:07:53;;;;;;;2.42;1.75;;;;;;;;;;5082017;28;20028;-87
2023/09/16 14:10:18;;;;;;;5.55;1.75;;;;;;;;;;5086085;28;20020;-85
2023/09/16 14:12:44;;;;;;;2.28;1.73;;;;;;;;;;5081650;28;20115;-86
2023/09/16 14:15:09;;;;;;;1.73;1.25;;;;;;;;;;5080300;28;20086;-88
2023/09/16 14:17:35;;;;;;;2.10;1.52;;;;;;;;;;5085502;28;20107;-87
2023/09/16 14:20:03;;;;;;;2.10;1.30;;;;;;;;;;5084627;28;20029;-87
2023/09/16 14:22:29;;;;;;;1.80;1.52;;;;;;;;;;5076683;28;20033;-84
2023/09/16 14:24:55;;;;;;;3.33;1.60;;;;;;;;;;5080021;28;20034;-84
2023/09/16 14:27:22;;;;;;;2.58;1.73;;;;;;;;;;5079155;28;20033;-86
2023/09/16 14:29:49;;;;;;;2.33;1.50;;;;;;;;;;5083366;28;20024;-84
2023/09/16 14:32:15;;;;;;;3.03;1.88;;;;;;;;;;5083342;28;20489;-87
2023/09/16 14:34:40;;;;;;;3.45;1.80;;;;;;;;;;5082965;28;20028;-88
2023/09/16 14:37:05;;;;;;;2.30;1.63;;;;;;;;;;5083790;28;20085;-86
2023/09/16 14:39:31;;;;;;;2.40;1.80;;;;;;;;;;5080877;28;20114;-87
2023/09/16 14:41:56;;;;;;;2.97;1.92;;;;;;;;;;5075857;28;20383;-85
2023/09/16 14:44:22;;;;;;;2.58;1.60;;;;;;;;;;5075423;28;20041;-82
2023/09/16 14:46:47;;;;;;;2.17;1.63;;;;;;;;;;5076306;28;20410;-87
2023/09/16 14:49:13;;;;;;;2.30;1.92;;;;;;;;;;5080111;28;20058;-86
2023/09/16 14:51:41;;;;;;;3.78;1.83;;;;;;;;;;5074133;28;20024;-86
2023/09/16 14:54:08;;;;;;;2.33;1.90;;;;;;;;;;5079503;28;20028;-86
2023/09/16 14:56:34;;;;;;;2.70;1.80;;;;;;;;;;5076887;28;20028;-90
2023/09/16 14:58:59;;;;;;;3.78;2.22;;;;;;;;;;5081760;28;20033;-87
2023/09/16 15:01:24;;;;;;;4.35;2.97;;;;;;;;;;5079047;28;20032;-86
2023/09/16 15:03:50;;;;;;;2.65;2.22;;;;;;;;;;5081348;28;20066;-86
2023/09/16 15:06:18;;;;;;;3.53;2.38;;;;;;;;;;5084494;28;20025;-86
2023/09/16 15:08:44;;;;;;;2.72;1.90;;;;;;;;;;5076398;28;20384;-85
2023/09/16 15:11:09;;;;;;;2.58;1.83;;;;;;;;;;5085102;28;20028;-86
2023/09/16 15:13:34;;;;;;;3.03;1.92;;;;;;;;;;5081409;28;20482;-86
2023/09/16 15:16:00;;;;;;;3.40;1.92;;;;;;;;;;5075322;28;20521;-88
2023/09/16 15:18:27;;;;;;;2.58;2.05;;;;;;;;;;5077333;28;20016;-88
2023/09/16 15:20:53;;;;;;;3.42;2.33;;;;;;;;;;5076017;28;20021;-88
2023/09/16 15:23:20;;;;;;;9.63;2.88;;;;;;;;;;5079123;28;20047;-87
2023/09/16 15:25:45;;;;;;;4.50;1.80;;;;;;;;;;5081801;28;20053;-85
2023/09/16 15:28:13;;;;;;;2.03;1.70;;;;;;;;;;5077735;28;20135;-87
2023/09/16 15:30:39;;;;;;;4.32;3.05;;;;;;;;;;5076321;28;20419;-87
2023/09/16 15:33:10;;;;;;;3.30;2.63;;;;;;;;;;5081082;28;20024;-87
2023/09/16 15:35:36;;;;;;;3.25;2.63;;;;;;;;;;5081356;28;20025;-85
2023/09/16 15:38:02;;;;;;;2.78;1.55;;;;;;;;;;5079947;28;20103;-89
2023/09/16 15:40:28;;;;;;;3.22;2.05;;;;;;;;;;5079682;28;20043;-87
2023/09/16 15:42:53;;;;;;;2.90;2.08;;;;;;;;;;5082044;28;20530;-87
2023/09/16 15:45:19;;;;;;;2.45;1.63;;;;;;;;;;5072871;28;20145;-85
2023/09/16 15:47:44;;;;;;;2.55;2.08;;;;;;;;;;5078206;28;20031;-87
2023/09/16 15:50:10;;;;;;;3.95;2.70;;;;;;;;;;5081472;28;20028;-85
2023/09/16 15:52:36;;;;;;;6.05;2.95;;;;;;;;;;5076323;28;20411;-86
2023/09/16 15:55:04;;;;;;;3.13;2.08;;;;;;;;;;5085199;28;20040;-88
2023/09/16 15:57:33;;;;;;;3.15;2.28;;;;;;;;;;5082097;28;20039;-88
2023/09/16 16:00:08;;;;;;;3.78;2.67;;;;;;;;;;5081572;28;20032;-86
2023/09/16 16:02:36;;;;;;;3.28;2.33;;;;;;;;;;5082521;28;20414;-85
2023/09/16 16:05:04;;;;;;;4.50;3.03;;;;;;;;;;5078144;28;20039;-87
2023/09/16 16:07:30;;;;;;;6.10;3.33;;;;;;;;;;5082411;28;20024;-87
2023/09/16 16:09:55;;;;;;;5.00;3.40;;;;;;;;;;5082659;28;20392;-88
2023/09/16 16:12:22;;;;;;;3.63;2.92;;;;;;;;;;5086022;28;20017;-88
2023/09/16 16:14:53;;;;;;;4.72;2.85;;;;;;;;;;5081110;28;20031;-86
2023/09/16 16:17:19;;;;;;;5.35;3.78;;;;;;;;;;5080344;28;20051;-87
2023/09/16 16:19:45;;;;;;;3.97;3.15;;;;;;;;;;5078789;28;20032;-90
2023/09/16 16:22:10;;;;;;;3.80;2.85;;;;;;;;;;5084737;28;20106;-83
2023/09/16 16:24:36;;;;;;;3.88;3.33;;;;;;;;;;5087056;28;20375;-86
2023/09/16 16:27:01;;;;;;;4.70;3.28;;;;;;;;;;5082798;28;20036;-84
2023/09/16 16:29:27;;;;;;;4.03;2.83;;;;;;;;;;5086432;28;20025;-87
2023/09/16 16:31:53;;;;;;;2.38;2.17;;;;;;;;;;5084927;28;20093;-87
2023/09/16 16:34:18;;;;;;;4.72;3.17;;;;;;;;;;5076072;28;20461;-86
2023/09/16 16:36:45;;;;;;;6.35;3.38;;;;;;;;;;5088658;28;20028;-86
2023/09/16 16:39:12;;;;;;;2.60;2.17;;;;;;;;;;5083376;28;20385;-87
2023/09/16 16:41:39;;;;;;;4.45;3.15;;;;;;;;;;5080297;28;20538;-87
2023/09/16 16:44:04;;;;;;;3.78;2.90;;;;;;;;;;5083824;28;20027;-87
2023/09/16 16:46:30;;;;;;;3.13;2.45;;;;;;;;;;5078915;28;20029;-84
2023/09/16 16:48:57;;;;;;;5.47;3.35;;;;;;;;;;5078701;28;20020;-87
2023/09/16 16:51:23;;;;;;;4.93;3.45;;;;;;;;;;5077448;28;20115;-85
2023/09/16 16:53:48;;;;;;;8.48;2.60;;;;;;;;;;5078243;28;20120;-86
2023/09/16 16:56:14;;;;;;;3.33;2.50;;;;;;;;;;5074123;28;20039;-83
2023/09/16 16:58:39;;;;;;;3.53;2.70;;;;;;;;;;5081272;28;20021;-84
2023/09/16 17:01:04;;;;;;;4.47;3.60;;;;;;;;;;5079115;28;20098;-83
2023/09/16 17:03:30;;;;;;;4.32;3.25;;;;;;;;;;5070411;28;20020;-81
2023/09/16 17:05:55;;;;;;;3.70;3.03;;;;;;;;;;5076161;28;20032;-81
2023/09/16 17:08:21;;;;;;;7.10;4.07;;;;;;;;;;5081488;28;20023;-84
2023/09/16 17:10:46;;;;;;;3.63;2.65;;;;;;;;;;5079396;28;20035;-81
2023/09/16 17:13:12;;;;;;;4.35;3.40;;;;;;;;;;5074512;28;20043;-81
2023/09/16 17:15:40;;;;;;;4.63;4.07;;;;;;;;;;5076650;28;20115;-82
2023/09/16 17:18:06;;;;;;;4.28;3.35;;;;;;;;;;5072871;28;20160;-82
2023/09/16 17:20:31;;;;;;;4.43;2.60;;;;;;;;;;5076910;28;20037;-82
